createdAt,value
2018-02-01T09:43:16.009Z,4
2018-02-01T09:44:16.571Z,2
2018-02-01T09:45:17.102Z,2
2018-02-01T09:47:21.051Z,4
2018-02-01T09:48:21.133Z,2
2018-02-01T09:49:21.228Z,2
2018-02-01T09:50:21.323Z,3
2018-02-01T09:51:21.417Z,3
2018-02-01T09:52:21.509Z,1
2018-02-01T09:53:21.604Z,1
2018-02-01T09:54:21.721Z,3
2018-02-01T09:55:21.813Z,4
2018-02-01T09:56:22.428Z,2
2018-02-01T09:57:22.867Z,1
2018-02-01T09:58:23.371Z,2
2018-02-01T09:59:23.469Z,1
2018-02-01T10:00:24.092Z,3
2018-02-01T10:01:24.947Z,4
2018-02-01T10:02:44.966Z,4
2018-02-01T10:03:45.549Z,2
2018-02-01T10:04:45.647Z,2
2018-02-01T10:05:45.745Z,3
2018-02-01T10:06:46.222Z,3
2018-02-01T10:07:46.614Z,1
2018-02-01T10:08:47.124Z,1
2018-02-01T10:09:47.703Z,3
2018-02-01T10:10:48.190Z,4
2018-02-01T10:11:48.578Z,2
2018-02-01T10:12:48.933Z,1
2018-02-01T10:13:49.423Z,2
2018-02-01T10:14:49.515Z,1
2018-02-01T10:15:49.602Z,3
2018-02-01T10:16:49.687Z,4
2018-02-01T10:17:49.775Z,4
2018-02-01T10:18:50.025Z,4
2018-02-01T10:21:01.838Z,4
2018-02-01T10:22:02.010Z,2
2018-02-01T10:23:02.609Z,2
2018-02-01T10:24:02.825Z,3
2018-02-01T10:25:03.112Z,3
2018-02-01T10:26:03.286Z,1
2018-02-01T10:27:04.372Z,1
2018-02-01T10:28:21.446Z,12
2018-02-01T10:29:21.641Z,18
2018-02-01T10:31:04.049Z,4
2018-02-01T10:33:45.432Z,1
2018-02-01T10:34:45.665Z,3
2018-02-01T10:35:45.950Z,4
2018-02-01T10:36:46.131Z,9
2018-02-01T10:38:50.843Z,0
2018-02-01T10:39:51.230Z,15
2018-02-01T10:41:28.027Z,9
2018-02-01T10:42:28.120Z,9
2018-02-01T10:43:28.211Z,9
2018-02-01T10:44:28.306Z,9
2018-02-01T10:45:28.849Z,11
2018-02-01T10:46:28.948Z,11
2018-02-01T10:47:29.524Z,12
2018-02-01T10:48:30.097Z,13
2018-02-01T10:49:30.610Z,16
2018-02-01T10:50:31.193Z,18
2018-02-01T10:51:31.774Z,19
2018-02-01T10:52:31.876Z,19
2018-02-01T10:53:31.953Z,20
2018-02-01T10:54:32.036Z,20
2018-02-01T10:55:32.125Z,20
2018-02-01T10:56:32.222Z,20
2018-02-01T10:57:32.318Z,20
2018-02-01T10:58:32.403Z,20
2018-02-01T10:59:32.985Z,21
